sensor_id;sensor_type;location;lat;lon;timestamp;temperature;humidity
25024;DHT22;13033;50.936;5.334;2023-11-19T00:01:10;13.40;99.90
25024;DHT22;13033;50.936;5.334;2023-11-19T00:03:36;13.40;99.90
25024;DHT22;13033;50.936;5.334;2023-11-19T00:06:02;13.40;99.90
25024;DHT22;13033;50.936;5.334;2023-11-19T00:08:29;13.40;99.90
25024;DHT22;13033;50.936;5.334;2023-11-19T00:10:55;13.50;99.90
25024;DHT22;13033;50.936;5.334;2023-11-19T00:13:21;13.50;99.90
25024;DHT22;13033;50.936;5.334;2023-11-19T00:15:46;13.50;99.90
25024;DHT22;13033;50.936;5.334;2023-11-19T00:18:12;13.60;99.90
25024;DHT22;13033;50.936;5.334;2023-11-19T00:20:39;13.60;99.90
25024;DHT22;13033;50.936;5.334;2023-11-19T00:23:05;13.50;99.90
25024;DHT22;13033;50.936;5.334;2023-11-19T00:25:31;13.40;99.90
25024;DHT22;13033;50.936;5.334;2023-11-19T00:27:57;13.50;99.90
25024;DHT22;13033;50.936;5.334;2023-11-19T00:30:22;13.60;99.90
25024;DHT22;13033;50.936;5.334;2023-11-19T00:32:48;13.60;99.90
25024;DHT22;13033;50.936;5.334;2023-11-19T00:35:14;13.60;99.90
25024;DHT22;13033;50.936;5.334;2023-11-19T00:37:39;13.50;99.90
25024;DHT22;13033;50.936;5.334;2023-11-19T00:40:06;13.50;99.90
25024;DHT22;13033;50.936;5.334;2023-11-19T00:42:32;13.50;99.90
25024;DHT22;13033;50.936;5.334;2023-11-19T00:44:57;13.60;99.90
25024;DHT22;13033;50.936;5.334;2023-11-19T00:47:23;13.70;99.90
25024;DHT22;13033;50.936;5.334;2023-11-19T00:49:49;13.60;99.90
25024;DHT22;13033;50.936;5.334;2023-11-19T00:52:18;13.70;99.90
25024;DHT22;13033;50.936;5.334;2023-11-19T00:54:44;13.60;99.90
25024;DHT22;13033;50.936;5.334;2023-11-19T00:57:09;13.60;99.90
25024;DHT22;13033;50.936;5.334;2023-11-19T00:59:35;13.50;99.90
25024;DHT22;13033;50.936;5.334;2023-11-19T01:02:01;13.60;99.90
25024;DHT22;13033;50.936;5.334;2023-11-19T01:04:37;13.60;99.90
25024;DHT22;13033;50.936;5.334;2023-11-19T01:07:04;13.60;99.90
25024;DHT22;13033;50.936;5.334;2023-11-19T01:09:31;13.60;99.90
25024;DHT22;13033;50.936;5.334;2023-11-19T01:12:01;13.70;99.90
25024;DHT22;13033;50.936;5.334;2023-11-19T01:14:27;13.70;99.90
25024;DHT22;13033;50.936;5.334;2023-11-19T01:16:53;13.70;99.90
25024;DHT22;13033;50.936;5.334;2023-11-19T01:19:22;13.80;99.90
25024;DHT22;13033;50.936;5.334;2023-11-19T01:21:49;13.70;99.90
25024;DHT22;13033;50.936;5.334;2023-11-19T01:24:14;13.70;99.90
25024;DHT22;13033;50.936;5.334;2023-11-19T01:26:41;13.80;99.90
25024;DHT22;13033;50.936;5.334;2023-11-19T01:29:15;13.80;99.90
25024;DHT22;13033;50.936;5.334;2023-11-19T01:31:42;13.80;99.90
25024;DHT22;13033;50.936;5.334;2023-11-19T01:34:08;13.80;99.90
25024;DHT22;13033;50.936;5.334;2023-11-19T01:36:34;13.90;99.90
25024;DHT22;13033;50.936;5.334;2023-11-19T01:39:00;13.80;99.90
25024;DHT22;13033;50.936;5.334;2023-11-19T01:41:25;13.80;99.90
25024;DHT22;13033;50.936;5.334;2023-11-19T01:43:51;13.80;99.90
25024;DHT22;13033;50.936;5.334;2023-11-19T01:46:17;13.90;99.90
25024;DHT22;13033;50.936;5.334;2023-11-19T01:48:45;14.00;99.90
25024;DHT22;13033;50.936;5.334;2023-11-19T01:51:12;13.90;99.90
25024;DHT22;13033;50.936;5.334;2023-11-19T01:53:39;13.80;99.90
25024;DHT22;13033;50.936;5.334;2023-11-19T01:56:08;13.90;99.90
25024;DHT22;13033;50.936;5.334;2023-11-19T01:58:36;13.90;99.90
25024;DHT22;13033;50.936;5.334;2023-11-19T02:01:02;13.90;99.90
25024;DHT22;13033;50.936;5.334;2023-11-19T02:03:31;14.00;99.90
25024;DHT22;13033;50.936;5.334;2023-11-19T02:05:59;14.00;99.90
25024;DHT22;13033;50.936;5.334;2023-11-19T02:08:24;14.00;99.90
25024;DHT22;13033;50.936;5.334;2023-11-19T02:10:51;13.90;99.90
25024;DHT22;13033;50.936;5.334;2023-11-19T02:13:18;13.90;99.90
25024;DHT22;13033;50.936;5.334;2023-11-19T02:15:44;13.90;99.90
25024;DHT22;13033;50.936;5.334;2023-11-19T02:18:24;13.80;99.90
25024;DHT22;13033;50.936;5.334;2023-11-19T02:20:59;13.70;99.90
25024;DHT22;13033;50.936;5.334;2023-11-19T02:23:28;13.70;99.90
25024;DHT22;13033;50.936;5.334;2023-11-19T02:28:36;13.70;99.90
25024;DHT22;13033;50.936;5.334;2023-11-19T02:31:02;13.70;99.90
25024;DHT22;13033;50.936;5.334;2023-11-19T02:33:30;13.80;99.90
25024;DHT22;13033;50.936;5.334;2023-11-19T02:35:56;13.80;99.90
25024;DHT22;13033;50.936;5.334;2023-11-19T02:38:21;13.80;99.90
25024;DHT22;13033;50.936;5.334;2023-11-19T02:40:48;13.70;99.90
25024;DHT22;13033;50.936;5.334;2023-11-19T02:43:14;13.80;99.90
25024;DHT22;13033;50.936;5.334;2023-11-19T02:45:40;13.70;99.90
25024;DHT22;13033;50.936;5.334;2023-11-19T02:48:06;13.70;99.90
25024;DHT22;13033;50.936;5.334;2023-11-19T02:50:32;13.70;99.90
25024;DHT22;13033;50.936;5.334;2023-11-19T02:52:57;13.70;99.90
25024;DHT22;13033;50.936;5.334;2023-11-19T02:55:24;13.70;99.90
25024;DHT22;13033;50.936;5.334;2023-11-19T02:57:51;13.70;99.90
25024;DHT22;13033;50.936;5.334;2023-11-19T03:00:19;13.70;99.90
25024;DHT22;13033;50.936;5.334;2023-11-19T03:02:49;13.60;99.90
25024;DHT22;13033;50.936;5.334;2023-11-19T03:05:24;13.60;99.90
25024;DHT22;13033;50.936;5.334;2023-11-19T03:07:50;13.60;99.90
25024;DHT22;13033;50.936;5.334;2023-11-19T03:10:15;13.60;99.90
25024;DHT22;13033;50.936;5.334;2023-11-19T03:12:43;13.50;99.90
25024;DHT22;13033;50.936;5.334;2023-11-19T03:15:11;13.50;99.90
25024;DHT22;13033;50.936;5.334;2023-11-19T03:17:40;13.40;99.90
25024;DHT22;13033;50.936;5.334;2023-11-19T03:20:08;13.40;99.90
25024;DHT22;13033;50.936;5.334;2023-11-19T03:22:41;13.50;99.90
25024;DHT22;13033;50.936;5.334;2023-11-19T03:25:07;13.40;99.90
25024;DHT22;13033;50.936;5.334;2023-11-19T03:27:37;13.40;99.90
25024;DHT22;13033;50.936;5.334;2023-11-19T03:30:09;13.40;99.90
25024;DHT22;13033;50.936;5.334;2023-11-19T03:32:36;13.40;99.90
25024;DHT22;13033;50.936;5.334;2023-11-19T03:35:02;13.40;99.90
25024;DHT22;13033;50.936;5.334;2023-11-19T03:37:30;13.40;99.90
25024;DHT22;13033;50.936;5.334;2023-11-19T03:39:57;13.30;99.90
25024;DHT22;13033;50.936;5.334;2023-11-19T03:42:26;13.40;99.90
25024;DHT22;13033;50.936;5.334;2023-11-19T03:44:52;13.30;99.90
25024;DHT22;13033;50.936;5.334;2023-11-19T03:47:19;13.30;99.90
25024;DHT22;13033;50.936;5.334;2023-11-19T03:49:51;13.30;99.90
25024;DHT22;13033;50.936;5.334;2023-11-19T03:52:17;13.30;99.90
25024;DHT22;13033;50.936;5.334;2023-11-19T03:54:43;13.30;99.90
25024;DHT22;13033;50.936;5.334;2023-11-19T03:57:08;13.30;99.90
25024;DHT22;13033;50.936;5.334;2023-11-19T03:59:36;13.20;99.90
25024;DHT22;13033;50.936;5.334;2023-11-19T04:02:02;13.20;99.90
25024;DHT22;13033;50.936;5.334;2023-11-19T04:04:28;13.20;99.90
25024;DHT22;13033;50.936;5.334;2023-11-19T04:06:55;13.20;99.90
25024;DHT22;13033;50.936;5.334;2023-11-19T04:09:21;13.10;99.90
25024;DHT22;13033;50.936;5.334;2023-11-19T04:11:47;13.10;99.90
25024;DHT22;13033;50.936;5.334;2023-11-19T04:14:13;13.10;99.90
25024;DHT22;13033;50.936;5.334;2023-11-19T04:16:39;13.20;99.90
25024;DHT22;13033;50.936;5.334;2023-11-19T04:19:05;13.20;99.90
25024;DHT22;13033;50.936;5.334;2023-11-19T04:21:32;13.20;99.90
25024;DHT22;13033;50.936;5.334;2023-11-19T04:23:57;13.20;99.90
25024;DHT22;13033;50.936;5.334;2023-11-19T04:26:23;13.20;99.90
25024;DHT22;13033;50.936;5.334;2023-11-19T04:28:49;13.10;99.90
25024;DHT22;13033;50.936;5.334;2023-11-19T04:31:15;13.10;99.90
25024;DHT22;13033;50.936;5.334;2023-11-19T04:33:44;13.20;99.90
25024;DHT22;13033;50.936;5.334;2023-11-19T04:36:10;13.10;99.90
25024;DHT22;13033;50.936;5.334;2023-11-19T04:38:36;13.10;99.90
25024;DHT22;13033;50.936;5.334;2023-11-19T04:41:04;13.10;99.90
25024;DHT22;13033;50.936;5.334;2023-11-19T04:43:31;13.10;99.90
25024;DHT22;13033;50.936;5.334;2023-11-19T04:45:57;13.10;99.90
25024;DHT22;13033;50.936;5.334;2023-11-19T04:48:23;13.10;99.90
25024;DHT22;13033;50.936;5.334;2023-11-19T04:50:49;13.00;99.90
25024;DHT22;13033;50.936;5.334;2023-11-19T04:53:16;13.00;99.90
25024;DHT22;13033;50.936;5.334;2023-11-19T04:55:42;13.00;99.90
25024;DHT22;13033;50.936;5.334;2023-11-19T04:58:08;13.00;99.90
25024;DHT22;13033;50.936;5.334;2023-11-19T05:00:34;13.00;99.90
25024;DHT22;13033;50.936;5.334;2023-11-19T05:03:00;13.00;99.90
25024;DHT22;13033;50.936;5.334;2023-11-19T05:05:25;13.10;99.90
25024;DHT22;13033;50.936;5.334;2023-11-19T05:07:51;13.20;99.90
25024;DHT22;13033;50.936;5.334;2023-11-19T05:10:17;13.30;99.90
25024;DHT22;13033;50.936;5.334;2023-11-19T05:12:43;13.20;99.90
25024;DHT22;13033;50.936;5.334;2023-11-19T05:15:08;13.20;99.90
25024;DHT22;13033;50.936;5.334;2023-11-19T05:17:34;13.30;99.90
25024;DHT22;13033;50.936;5.334;2023-11-19T05:20:00;13.30;99.90
25024;DHT22;13033;50.936;5.334;2023-11-19T05:22:25;13.30;99.90
25024;DHT22;13033;50.936;5.334;2023-11-19T05:24:51;13.20;99.90
25024;DHT22;13033;50.936;5.334;2023-11-19T05:27:18;13.20;99.90
25024;DHT22;13033;50.936;5.334;2023-11-19T05:29:44;13.10;99.90
25024;DHT22;13033;50.936;5.334;2023-11-19T05:32:10;13.10;99.90
25024;DHT22;13033;50.936;5.334;2023-11-19T05:34:35;13.10;99.90
25024;DHT22;13033;50.936;5.334;2023-11-19T05:37:01;13.10;99.90
25024;DHT22;13033;50.936;5.334;2023-11-19T05:39:28;13.00;99.90
25024;DHT22;13033;50.936;5.334;2023-11-19T05:41:53;13.00;99.90
25024;DHT22;13033;50.936;5.334;2023-11-19T05:44:19;12.90;99.90
25024;DHT22;13033;50.936;5.334;2023-11-19T05:46:45;12.90;99.90
25024;DHT22;13033;50.936;5.334;2023-11-19T05:49:11;12.90;99.90
25024;DHT22;13033;50.936;5.334;2023-11-19T05:51:40;12.90;99.90
25024;DHT22;13033;50.936;5.334;2023-11-19T05:54:10;12.80;99.90
25024;DHT22;13033;50.936;5.334;2023-11-19T05:56:36;12.80;99.90
25024;DHT22;13033;50.936;5.334;2023-11-19T05:59:02;12.80;99.90
25024;DHT22;13033;50.936;5.334;2023-11-19T06:01:33;12.80;99.90
25024;DHT22;13033;50.936;5.334;2023-11-19T06:03:59;12.80;99.90
25024;DHT22;13033;50.936;5.334;2023-11-19T06:06:26;12.80;99.90
25024;DHT22;13033;50.936;5.334;2023-11-19T06:08:54;12.80;99.90
25024;DHT22;13033;50.936;5.334;2023-11-19T06:11:20;12.80;99.90
25024;DHT22;13033;50.936;5.334;2023-11-19T06:13:46;12.80;99.90
25024;DHT22;13033;50.936;5.334;2023-11-19T06:16:16;12.80;99.90
25024;DHT22;13033;50.936;5.334;2023-11-19T06:18:42;12.70;99.90
25024;DHT22;13033;50.936;5.334;2023-11-19T06:21:09;12.60;99.90
25024;DHT22;13033;50.936;5.334;2023-11-19T06:23:35;12.60;99.90
25024;DHT22;13033;50.936;5.334;2023-11-19T06:26:01;12.60;99.90
25024;DHT22;13033;50.936;5.334;2023-11-19T06:28:26;12.50;99.90
25024;DHT22;13033;50.936;5.334;2023-11-19T06:30:53;12.50;99.90
25024;DHT22;13033;50.936;5.334;2023-11-19T06:33:18;12.50;99.90
25024;DHT22;13033;50.936;5.334;2023-11-19T06:35:44;12.50;99.90
25024;DHT22;13033;50.936;5.334;2023-11-19T06:38:10;12.60;99.90
25024;DHT22;13033;50.936;5.334;2023-11-19T06:40:36;12.60;99.90
25024;DHT22;13033;50.936;5.334;2023-11-19T06:43:02;12.50;99.90
25024;DHT22;13033;50.936;5.334;2023-11-19T06:45:29;12.50;99.90
25024;DHT22;13033;50.936;5.334;2023-11-19T06:47:55;12.50;99.90
25024;DHT22;13033;50.936;5.334;2023-11-19T06:50:21;12.40;99.90
25024;DHT22;13033;50.936;5.334;2023-11-19T06:52:46;12.40;99.90
25024;DHT22;13033;50.936;5.334;2023-11-19T06:55:12;12.40;99.90
25024;DHT22;13033;50.936;5.334;2023-11-19T06:57:38;12.40;99.90
25024;DHT22;13033;50.936;5.334;2023-11-19T07:00:05;12.40;99.90
25024;DHT22;13033;50.936;5.334;2023-11-19T07:02:32;12.40;99.90
25024;DHT22;13033;50.936;5.334;2023-11-19T07:04:58;12.50;99.90
25024;DHT22;13033;50.936;5.334;2023-11-19T07:07:25;12.50;99.90
25024;DHT22;13033;50.936;5.334;2023-11-19T07:09:51;12.40;99.90
25024;DHT22;13033;50.936;5.334;2023-11-19T07:12:17;12.40;99.90
25024;DHT22;13033;50.936;5.334;2023-11-19T07:14:43;12.40;99.90
25024;DHT22;13033;50.936;5.334;2023-11-19T07:17:09;12.30;99.90
25024;DHT22;13033;50.936;5.334;2023-11-19T07:19:35;12.30;99.90
25024;DHT22;13033;50.936;5.334;2023-11-19T07:22:03;12.20;99.90
25024;DHT22;13033;50.936;5.334;2023-11-19T07:24:29;12.20;99.90
25024;DHT22;13033;50.936;5.334;2023-11-19T07:26:55;12.30;99.90
25024;DHT22;13033;50.936;5.334;2023-11-19T07:29:20;12.30;99.90
25024;DHT22;13033;50.936;5.334;2023-11-19T07:31:49;12.30;99.90
25024;DHT22;13033;50.936;5.334;2023-11-19T07:34:15;12.30;99.90
25024;DHT22;13033;50.936;5.334;2023-11-19T07:36:40;12.30;99.90
25024;DHT22;13033;50.936;5.334;2023-11-19T07:39:06;12.20;99.90
25024;DHT22;13033;50.936;5.334;2023-11-19T07:41:32;12.20;99.90
25024;DHT22;13033;50.936;5.334;2023-11-19T07:43:58;12.20;99.90
25024;DHT22;13033;50.936;5.334;2023-11-19T07:46:24;12.30;99.90
25024;DHT22;13033;50.936;5.334;2023-11-19T07:48:51;12.20;99.90
25024;DHT22;13033;50.936;5.334;2023-11-19T07:51:17;12.20;99.90
25024;DHT22;13033;50.936;5.334;2023-11-19T07:53:43;12.30;99.90
25024;DHT22;13033;50.936;5.334;2023-11-19T07:56:09;12.20;99.90
25024;DHT22;13033;50.936;5.334;2023-11-19T07:58:35;12.20;99.90
25024;DHT22;13033;50.936;5.334;2023-11-19T08:01:02;12.20;99.90
25024;DHT22;13033;50.936;5.334;2023-11-19T08:03:28;12.20;99.90
25024;DHT22;13033;50.936;5.334;2023-11-19T08:05:58;12.20;99.90
25024;DHT22;13033;50.936;5.334;2023-11-19T08:08:23;12.20;99.90
25024;DHT22;13033;50.936;5.334;2023-11-19T08:10:49;12.20;99.90
25024;DHT22;13033;50.936;5.334;2023-11-19T08:13:17;12.20;99.90
25024;DHT22;13033;50.936;5.334;2023-11-19T08:15:43;12.30;99.90
25024;DHT22;13033;50.936;5.334;2023-11-19T08:18:09;12.20;99.90
25024;DHT22;13033;50.936;5.334;2023-11-19T08:20:34;12.30;99.90
25024;DHT22;13033;50.936;5.334;2023-11-19T08:23:02;12.40;99.90
25024;DHT22;13033;50.936;5.334;2023-11-19T08:25:29;12.40;99.90
25024;DHT22;13033;50.936;5.334;2023-11-19T08:27:54;12.50;99.90
25024;DHT22;13033;50.936;5.334;2023-11-19T08:30:20;12.60;99.90
25024;DHT22;13033;50.936;5.334;2023-11-19T08:32:46;12.70;99.90
25024;DHT22;13033;50.936;5.334;2023-11-19T08:35:11;12.70;99.90
25024;DHT22;13033;50.936;5.334;2023-11-19T08:37:37;12.70;99.90
25024;DHT22;13033;50.936;5.334;2023-11-19T08:40:04;12.60;99.90
25024;DHT22;13033;50.936;5.334;2023-11-19T08:42:30;12.80;99.90
25024;DHT22;13033;50.936;5.334;2023-11-19T08:44:56;12.90;99.90
25024;DHT22;13033;50.936;5.334;2023-11-19T08:47:22;12.90;99.90
25024;DHT22;13033;50.936;5.334;2023-11-19T08:49:51;13.00;99.90
25024;DHT22;13033;50.936;5.334;2023-11-19T08:52:20;13.00;99.90
25024;DHT22;13033;50.936;5.334;2023-11-19T08:54:46;12.90;99.90
25024;DHT22;13033;50.936;5.334;2023-11-19T08:57:11;13.10;99.90
25024;DHT22;13033;50.936;5.334;2023-11-19T08:59:37;13.00;99.90
25024;DHT22;13033;50.936;5.334;2023-11-19T09:02:05;13.10;99.90
25024;DHT22;13033;50.936;5.334;2023-11-19T09:04:31;13.00;99.90
25024;DHT22;13033;50.936;5.334;2023-11-19T09:06:58;13.00;99.90
25024;DHT22;13033;50.936;5.334;2023-11-19T09:09:23;13.00;99.90
25024;DHT22;13033;50.936;5.334;2023-11-19T09:11:49;13.10;99.90
25024;DHT22;13033;50.936;5.334;2023-11-19T09:14:15;13.20;99.90
25024;DHT22;13033;50.936;5.334;2023-11-19T09:16:41;13.20;99.90
25024;DHT22;13033;50.936;5.334;2023-11-19T09:19:06;13.30;99.90
25024;DHT22;13033;50.936;5.334;2023-11-19T09:21:32;13.20;99.90
25024;DHT22;13033;50.936;5.334;2023-11-19T09:24:00;13.40;99.90
25024;DHT22;13033;50.936;5.334;2023-11-19T09:26:25;13.30;99.90
25024;DHT22;13033;50.936;5.334;2023-11-19T09:28:51;13.30;99.90
25024;DHT22;13033;50.936;5.334;2023-11-19T09:31:18;13.30;99.90
25024;DHT22;13033;50.936;5.334;2023-11-19T09:33:44;13.40;99.90
25024;DHT22;13033;50.936;5.334;2023-11-19T09:36:12;13.30;99.90
25024;DHT22;13033;50.936;5.334;2023-11-19T09:38:40;13.50;99.90
25024;DHT22;13033;50.936;5.334;2023-11-19T09:41:06;13.50;99.90
25024;DHT22;13033;50.936;5.334;2023-11-19T09:43:37;13.50;99.90
25024;DHT22;13033;50.936;5.334;2023-11-19T09:46:05;13.50;99.90
25024;DHT22;13033;50.936;5.334;2023-11-19T09:48:35;13.50;99.90
25024;DHT22;13033;50.936;5.334;2023-11-19T09:51:01;13.60;99.90
25024;DHT22;13033;50.936;5.334;2023-11-19T09:53:28;13.60;99.90
25024;DHT22;13033;50.936;5.334;2023-11-19T09:55:53;13.60;99.90
25024;DHT22;13033;50.936;5.334;2023-11-19T09:58:20;13.40;99.90
25024;DHT22;13033;50.936;5.334;2023-11-19T10:00:47;13.40;99.90
25024;DHT22;13033;50.936;5.334;2023-11-19T10:03:14;13.20;99.90
25024;DHT22;13033;50.936;5.334;2023-11-19T10:05:39;13.30;99.90
25024;DHT22;13033;50.936;5.334;2023-11-19T10:08:06;13.30;99.90
25024;DHT22;13033;50.936;5.334;2023-11-19T10:10:33;13.30;99.90
25024;DHT22;13033;50.936;5.334;2023-11-19T10:13:00;13.40;99.90
25024;DHT22;13033;50.936;5.334;2023-11-19T10:15:26;13.50;99.90
25024;DHT22;13033;50.936;5.334;2023-11-19T10:17:58;13.70;99.90
25024;DHT22;13033;50.936;5.334;2023-11-19T10:20:23;13.80;99.90
25024;DHT22;13033;50.936;5.334;2023-11-19T10:22:55;13.90;99.90
25024;DHT22;13033;50.936;5.334;2023-11-19T10:25:23;14.00;99.90
25024;DHT22;13033;50.936;5.334;2023-11-19T10:27:52;14.10;99.90
25024;DHT22;13033;50.936;5.334;2023-11-19T10:30:30;14.20;99.90
25024;DHT22;13033;50.936;5.334;2023-11-19T10:35:36;14.00;99.90
25024;DHT22;13033;50.936;5.334;2023-11-19T10:38:14;14.00;99.90
25024;DHT22;13033;50.936;5.334;2023-11-19T10:40:41;14.00;99.90
25024;DHT22;13033;50.936;5.334;2023-11-19T10:43:07;14.10;99.90
25024;DHT22;13033;50.936;5.334;2023-11-19T10:45:33;14.00;99.90
25024;DHT22;13033;50.936;5.334;2023-11-19T10:47:59;13.90;99.90
25024;DHT22;13033;50.936;5.334;2023-11-19T10:50:29;13.80;99.90
25024;DHT22;13033;50.936;5.334;2023-11-19T10:52:57;13.80;99.90
25024;DHT22;13033;50.936;5.334;2023-11-19T10:55:33;14.00;99.90
25024;DHT22;13033;50.936;5.334;2023-11-19T10:58:04;14.10;99.90
25024;DHT22;13033;50.936;5.334;2023-11-19T11:00:44;14.20;99.90
25024;DHT22;13033;50.936;5.334;2023-11-19T11:03:17;14.30;99.90
25024;DHT22;13033;50.936;5.334;2023-11-19T11:05:45;14.20;99.90
25024;DHT22;13033;50.936;5.334;2023-11-19T11:08:13;14.20;99.90
25024;DHT22;13033;50.936;5.334;2023-11-19T11:10:59;14.30;99.90
25024;DHT22;13033;50.936;5.334;2023-11-19T11:13:26;14.20;99.90
25024;DHT22;13033;50.936;5.334;2023-11-19T11:15:55;14.30;99.90
25024;DHT22;13033;50.936;5.334;2023-11-19T11:18:23;14.40;99.90
25024;DHT22;13033;50.936;5.334;2023-11-19T11:21:11;14.40;99.90
25024;DHT22;13033;50.936;5.334;2023-11-19T11:29:44;14.40;99.90
25024;DHT22;13033;50.936;5.334;2023-11-19T11:38:14;14.60;99.90
25024;DHT22;13033;50.936;5.334;2023-11-19T11:40:41;14.50;99.90
25024;DHT22;13033;50.936;5.334;2023-11-19T11:43:43;14.20;99.90
25024;DHT22;13033;50.936;5.334;2023-11-19T11:46:09;14.00;99.90
25024;DHT22;13033;50.936;5.334;2023-11-19T11:48:34;13.70;99.90
25024;DHT22;13033;50.936;5.334;2023-11-19T11:51:00;13.60;99.90
25024;DHT22;13033;50.936;5.334;2023-11-19T11:53:27;13.60;99.90
25024;DHT22;13033;50.936;5.334;2023-11-19T11:55:54;13.70;99.90
25024;DHT22;13033;50.936;5.334;2023-11-19T11:58:31;13.90;99.90
25024;DHT22;13033;50.936;5.334;2023-11-19T12:01:02;14.00;99.90
25024;DHT22;13033;50.936;5.334;2023-11-19T12:03:29;14.00;99.90
25024;DHT22;13033;50.936;5.334;2023-11-19T12:05:57;14.10;99.90
25024;DHT22;13033;50.936;5.334;2023-11-19T12:08:27;14.00;99.90
25024;DHT22;13033;50.936;5.334;2023-11-19T12:10:55;14.20;99.90
25024;DHT22;13033;50.936;5.334;2023-11-19T12:13:24;14.10;99.90
25024;DHT22;13033;50.936;5.334;2023-11-19T12:18:27;14.00;99.90
25024;DHT22;13033;50.936;5.334;2023-11-19T12:20:53;14.10;99.90
25024;DHT22;13033;50.936;5.334;2023-11-19T12:23:19;14.20;99.90
25024;DHT22;13033;50.936;5.334;2023-11-19T12:25:45;14.20;99.90
25024;DHT22;13033;50.936;5.334;2023-11-19T12:28:14;14.30;99.90
25024;DHT22;13033;50.936;5.334;2023-11-19T12:30:43;14.30;99.90
25024;DHT22;13033;50.936;5.334;2023-11-19T12:33:10;14.40;99.90
25024;DHT22;13033;50.936;5.334;2023-11-19T12:35:46;14.50;99.90
25024;DHT22;13033;50.936;5.334;2023-11-19T12:38:23;14.70;99.90
25024;DHT22;13033;50.936;5.334;2023-11-19T12:41:08;14.90;99.90
25024;DHT22;13033;50.936;5.334;2023-11-19T12:43:36;15.00;99.90
25024;DHT22;13033;50.936;5.334;2023-11-19T12:46:16;14.90;99.90
25024;DHT22;13033;50.936;5.334;2023-11-19T12:48:42;14.80;99.90
25024;DHT22;13033;50.936;5.334;2023-11-19T12:51:08;14.70;99.90
25024;DHT22;13033;50.936;5.334;2023-11-19T12:53:51;14.60;99.90
25024;DHT22;13033;50.936;5.334;2023-11-19T12:56:22;14.50;99.90
25024;DHT22;13033;50.936;5.334;2023-11-19T12:58:48;14.50;99.90
25024;DHT22;13033;50.936;5.334;2023-11-19T13:01:21;14.50;99.90
25024;DHT22;13033;50.936;5.334;2023-11-19T13:03:47;14.60;99.90
25024;DHT22;13033;50.936;5.334;2023-11-19T13:06:16;14.50;99.90
25024;DHT22;13033;50.936;5.334;2023-11-19T13:08:51;14.50;99.90
25024;DHT22;13033;50.936;5.334;2023-11-19T13:11:34;14.30;99.90
25024;DHT22;13033;50.936;5.334;2023-11-19T13:14:02;14.30;99.90
25024;DHT22;13033;50.936;5.334;2023-11-19T13:16:36;14.20;99.90
25024;DHT22;13033;50.936;5.334;2023-11-19T13:19:02;14.20;99.90
25024;DHT22;13033;50.936;5.334;2023-11-19T13:21:28;14.20;99.90
25024;DHT22;13033;50.936;5.334;2023-11-19T13:23:59;14.20;99.90
25024;DHT22;13033;50.936;5.334;2023-11-19T13:26:25;14.10;99.90
25024;DHT22;13033;50.936;5.334;2023-11-19T13:28:50;14.10;99.90
25024;DHT22;13033;50.936;5.334;2023-11-19T13:31:17;14.00;99.90
25024;DHT22;13033;50.936;5.334;2023-11-19T13:33:42;13.90;99.90
25024;DHT22;13033;50.936;5.334;2023-11-19T13:36:08;13.90;99.90
25024;DHT22;13033;50.936;5.334;2023-11-19T13:38:35;13.90;99.90
25024;DHT22;13033;50.936;5.334;2023-11-19T13:41:02;13.90;99.90
25024;DHT22;13033;50.936;5.334;2023-11-19T13:43:28;13.90;99.90
25024;DHT22;13033;50.936;5.334;2023-11-19T13:45:56;13.90;99.90
25024;DHT22;13033;50.936;5.334;2023-11-19T13:48:23;14.00;99.90
25024;DHT22;13033;50.936;5.334;2023-11-19T13:50:49;14.00;99.90
25024;DHT22;13033;50.936;5.334;2023-11-19T13:53:16;14.10;99.90
25024;DHT22;13033;50.936;5.334;2023-11-19T13:55:42;14.10;99.90
25024;DHT22;13033;50.936;5.334;2023-11-19T13:58:08;14.20;99.90
25024;DHT22;13033;50.936;5.334;2023-11-19T14:00:34;14.10;99.90
25024;DHT22;13033;50.936;5.334;2023-11-19T14:03:00;14.20;99.90
25024;DHT22;13033;50.936;5.334;2023-11-19T14:05:26;14.20;99.90
25024;DHT22;13033;50.936;5.334;2023-11-19T14:07:52;14.10;99.90
25024;DHT22;13033;50.936;5.334;2023-11-19T14:10:19;14.00;99.90
25024;DHT22;13033;50.936;5.334;2023-11-19T14:12:45;14.00;99.90
25024;DHT22;13033;50.936;5.334;2023-11-19T14:15:11;13.80;99.90
25024;DHT22;13033;50.936;5.334;2023-11-19T14:17:39;13.70;99.90
25024;DHT22;13033;50.936;5.334;2023-11-19T14:20:06;13.60;99.90
25024;DHT22;13033;50.936;5.334;2023-11-19T14:22:45;13.60;99.90
25024;DHT22;13033;50.936;5.334;2023-11-19T14:25:13;13.60;99.90
25024;DHT22;13033;50.936;5.334;2023-11-19T14:27:43;13.70;99.90
25024;DHT22;13033;50.936;5.334;2023-11-19T14:30:10;13.60;99.90
25024;DHT22;13033;50.936;5.334;2023-11-19T14:32:37;13.40;99.90
25024;DHT22;13033;50.936;5.334;2023-11-19T14:35:04;13.50;99.90
25024;DHT22;13033;50.936;5.334;2023-11-19T14:37:30;13.50;99.90
25024;DHT22;13033;50.936;5.334;2023-11-19T14:39:59;13.50;99.90
25024;DHT22;13033;50.936;5.334;2023-11-19T14:42:25;13.50;99.90
25024;DHT22;13033;50.936;5.334;2023-11-19T14:44:52;13.40;99.90
25024;DHT22;13033;50.936;5.334;2023-11-19T14:47:21;13.40;99.90
25024;DHT22;13033;50.936;5.334;2023-11-19T14:49:47;13.40;99.90
25024;DHT22;13033;50.936;5.334;2023-11-19T14:52:13;13.50;99.90
25024;DHT22;13033;50.936;5.334;2023-11-19T14:54:39;13.50;99.90
25024;DHT22;13033;50.936;5.334;2023-11-19T14:57:05;13.60;99.90
25024;DHT22;13033;50.936;5.334;2023-11-19T14:59:33;13.60;99.90
25024;DHT22;13033;50.936;5.334;2023-11-19T15:01:59;13.50;99.90
25024;DHT22;13033;50.936;5.334;2023-11-19T15:04:26;13.50;99.90
25024;DHT22;13033;50.936;5.334;2023-11-19T15:06:52;13.50;99.90
25024;DHT22;13033;50.936;5.334;2023-11-19T15:09:18;13.50;99.90
25024;DHT22;13033;50.936;5.334;2023-11-19T15:11:47;13.50;99.90
25024;DHT22;13033;50.936;5.334;2023-11-19T15:14:15;13.60;99.90
25024;DHT22;13033;50.936;5.334;2023-11-19T15:16:45;13.60;99.90
25024;DHT22;13033;50.936;5.334;2023-11-19T15:19:11;13.50;99.90
25024;DHT22;13033;50.936;5.334;2023-11-19T15:21:41;13.60;99.90
25024;DHT22;13033;50.936;5.334;2023-11-19T15:24:08;13.60;99.90
25024;DHT22;13033;50.936;5.334;2023-11-19T15:26:34;13.60;99.90
25024;DHT22;13033;50.936;5.334;2023-11-19T15:29:01;13.70;99.90
25024;DHT22;13033;50.936;5.334;2023-11-19T15:31:27;13.60;99.90
25024;DHT22;13033;50.936;5.334;2023-11-19T15:33:52;13.60;99.90
25024;DHT22;13033;50.936;5.334;2023-11-19T15:36:18;13.60;99.90
25024;DHT22;13033;50.936;5.334;2023-11-19T15:38:44;13.60;99.90
25024;DHT22;13033;50.936;5.334;2023-11-19T15:41:10;13.50;99.90
25024;DHT22;13033;50.936;5.334;2023-11-19T15:43:35;13.60;99.90
25024;DHT22;13033;50.936;5.334;2023-11-19T15:46:06;13.60;99.90
25024;DHT22;13033;50.936;5.334;2023-11-19T15:48:32;13.60;99.90
25024;DHT22;13033;50.936;5.334;2023-11-19T15:50:57;13.60;99.90